createdAt,value
2018-06-12T00:00:08.689Z,15.6
2018-06-12T00:00:58.772Z,15.6
2018-06-12T00:01:47.967Z,15.6
2018-06-12T00:02:38.613Z,15.6
2018-06-12T00:03:28.660Z,15.6
2018-06-12T00:04:18.731Z,15.6
2018-06-12T00:05:09.073Z,15.5
2018-06-12T00:05:58.885Z,15.5
2018-06-12T00:06:49.273Z,15.6
2018-06-12T00:07:38.718Z,15.5
2018-06-12T00:08:29.354Z,15.5
2018-06-12T00:09:19.425Z,15.5
2018-06-12T00:10:08.904Z,15.5
2018-06-12T00:10:59.538Z,15.4
2018-06-12T00:11:49.322Z,15.4
2018-06-12T00:12:39.631Z,15.4
2018-06-12T00:13:29.459Z,15.4
2018-06-12T00:14:19.845Z,15.4
2018-06-12T00:15:09.881Z,15.4
2018-06-12T00:15:59.632Z,15.4
2018-06-12T00:16:49.124Z,15.4
2018-06-12T00:17:40.044Z,15.3
2018-06-12T00:18:30.122Z,15.3
2018-06-12T00:19:19.904Z,15.3
2018-06-12T00:20:09.959Z,15.3
2018-06-12T00:21:00.028Z,15.3
2018-06-12T00:21:50.091Z,15.3
2018-06-12T00:22:39.906Z,15.3
2018-06-12T00:23:30.499Z,15.3
2018-06-12T00:24:20.642Z,15.3
2018-06-12T00:25:10.374Z,15.3
2018-06-12T00:26:00.702Z,15.2
2018-06-12T00:26:50.511Z,15.2
2018-06-12T00:27:40.837Z,15.2
2018-06-12T00:28:30.889Z,15.1
2018-06-12T00:29:20.938Z,15.1
2018-06-12T00:30:10.452Z,15.1
2018-06-12T00:31:01.070Z,15.1
2018-06-12T00:31:51.144Z,15.1
2018-06-12T00:32:41.226Z,15.1
2018-06-12T00:33:31.359Z,15.1
2018-06-12T00:34:21.350Z,15.1
2018-06-12T00:35:11.439Z,15.1
2018-06-12T00:36:01.228Z,15
2018-06-12T00:36:51.003Z,15
2018-06-12T00:37:41.628Z,15
2018-06-12T00:38:31.689Z,15
2018-06-12T00:39:21.438Z,14.9
2018-06-12T00:40:11.808Z,14.9
2018-06-12T00:41:01.896Z,14.9
2018-06-12T00:41:51.924Z,14.9
2018-06-12T00:42:41.722Z,14.9
2018-06-12T00:43:31.593Z,14.9
2018-06-12T00:44:22.200Z,14.8
2018-06-12T00:45:11.617Z,14.8
2018-06-12T00:46:02.244Z,14.8
2018-06-12T00:46:52.019Z,14.8
2018-06-12T00:47:42.407Z,14.8
2018-06-12T00:48:32.437Z,14.8
2018-06-12T00:49:22.226Z,14.8
2018-06-12T00:50:12.595Z,14.8
2018-06-12T00:51:02.374Z,14.8
2018-06-12T00:51:52.706Z,14.7
2018-06-12T00:52:42.200Z,14.7
2018-06-12T00:53:32.836Z,14.7
2018-06-12T00:54:22.612Z,14.6
2018-06-12T00:55:12.388Z,14.6
2018-06-12T00:56:02.746Z,14.6
2018-06-12T00:56:53.165Z,14.6
2018-06-12T00:57:42.875Z,14.6
2018-06-12T00:58:32.939Z,14.6
2018-06-12T00:59:23.046Z,14.6
2018-06-12T01:00:13.371Z,14.6
2018-06-12T01:01:02.838Z,14.5
2018-06-12T01:01:53.463Z,14.5
2018-06-12T01:02:43.272Z,14.4
2018-06-12T01:03:33.613Z,14.5
2018-06-12T01:04:23.693Z,14.5
2018-06-12T01:05:13.436Z,14.4
2018-06-12T01:06:03.252Z,14.4
2018-06-12T01:06:53.877Z,14.4
2018-06-12T01:07:43.920Z,14.4
2018-06-12T01:08:33.458Z,14.4
2018-06-12T01:09:23.766Z,14.4
2018-06-12T01:10:13.288Z,14.4
2018-06-12T01:11:04.195Z,14.4
2018-06-12T01:11:54.278Z,14.3
2018-06-12T01:12:44.326Z,14.3
2018-06-12T01:13:34.409Z,14.3
2018-06-12T01:14:23.892Z,14.3
2018-06-12T01:15:13.970Z,14.3
2018-06-12T01:16:04.018Z,14.3
2018-06-12T01:16:54.663Z,14.3
2018-06-12T01:17:59.380Z,14.3
2018-06-12T01:18:34.508Z,14.3
2018-06-12T01:19:24.272Z,14.3
2018-06-12T01:20:14.900Z,14.3
2018-06-12T01:21:04.685Z,14.3
2018-06-12T01:21:55.032Z,14.2
2018-06-12T01:22:44.518Z,14.3
2018-06-12T01:23:35.152Z,14.3
2018-06-12T01:24:25.247Z,14.2
2018-06-12T01:25:15.284Z,14.2
2018-06-12T01:26:05.068Z,14.2
2018-06-12T01:26:55.188Z,14.2
2018-06-12T01:27:45.202Z,14.2
2018-06-12T01:28:35.553Z,14.2
2018-06-12T01:29:25.609Z,14.2
2018-06-12T01:30:15.685Z,14.1
2018-06-12T01:31:05.189Z,14.1
2018-06-12T01:31:55.850Z,14.1
2018-06-12T01:32:45.870Z,14.1
2018-06-12T01:33:35.930Z,14.1
2018-06-12T01:34:25.788Z,14.1
2018-06-12T01:35:15.784Z,14.1
2018-06-12T01:36:05.305Z,14.1
2018-06-12T01:36:56.202Z,14.1
2018-06-12T01:37:46.277Z,14.1
2018-06-12T01:38:36.057Z,14.1
2018-06-12T01:39:26.104Z,14.1
2018-06-12T01:40:16.194Z,14.1
2018-06-12T01:41:06.234Z,14.1
2018-06-12T01:41:56.011Z,14.1
2018-06-12T01:42:46.380Z,14.1
2018-06-12T01:43:36.719Z,14.1
2018-06-12T01:44:26.488Z,14.1
2018-06-12T01:45:16.864Z,14.1
2018-06-12T01:46:06.929Z,14.1
2018-06-12T01:46:56.711Z,14.1
2018-06-12T01:47:46.754Z,14.1
2018-06-12T01:48:37.096Z,14.1
2018-06-12T01:49:26.874Z,14.1
2018-06-12T01:50:16.407Z,14.1
2018-06-12T01:51:07.315Z,14.1
2018-06-12T01:51:57.364Z,14.1
2018-06-12T01:52:47.416Z,14.1
2018-06-12T01:53:36.910Z,14.1
2018-06-12T01:54:27.541Z,14.1
2018-06-12T01:55:17.053Z,14.1
2018-06-12T01:56:07.394Z,14.1
2018-06-12T01:56:57.203Z,14.1
2018-06-12T01:57:47.523Z,14.1
2018-06-12T01:58:37.883Z,14.2
2018-06-12T01:59:27.660Z,14.1
2018-06-12T02:00:17.438Z,14.1
2018-06-12T02:01:08.065Z,14.1
2018-06-12T02:01:57.848Z,14.2
2018-06-12T02:02:47.909Z,14.1
2018-06-12T02:03:37.710Z,14.1
2018-06-12T02:04:28.033Z,14.1
2018-06-12T02:05:17.857Z,14.1
2018-06-12T02:06:08.446Z,14.1
2018-06-12T02:06:58.520Z,14.1
2018-06-12T02:07:48.590Z,14.1
2018-06-12T02:08:38.355Z,14.2
2018-06-12T02:09:28.691Z,14.2
2018-06-12T02:10:18.771Z,14.1
2018-06-12T02:11:08.263Z,14.2
2018-06-12T02:11:58.063Z,14.2
2018-06-12T02:12:48.683Z,14.2
2018-06-12T02:13:39.043Z,14.1
2018-06-12T02:14:29.085Z,14.2
2018-06-12T02:15:18.890Z,14.1
2018-06-12T02:16:08.943Z,14.2
2018-06-12T02:16:59.017Z,14.1
2018-06-12T02:17:49.346Z,14.1
2018-06-12T02:18:39.404Z,14.1
2018-06-12T02:19:29.480Z,14.1
2018-06-12T02:20:19.541Z,14.1
2018-06-12T02:21:09.624Z,14.1
2018-06-12T02:21:59.432Z,14.1
2018-06-12T02:22:49.004Z,14.1
2018-06-12T02:23:38.961Z,14.1
2018-06-12T02:24:29.892Z,14.1
2018-06-12T02:25:19.961Z,14.1
2018-06-12T02:26:09.989Z,14.1
2018-06-12T02:27:00.046Z,14.1
2018-06-12T02:27:50.126Z,14.1
2018-06-12T02:28:40.184Z,14.1
2018-06-12T02:29:30.273Z,14.1
2018-06-12T02:30:20.320Z,14.1
2018-06-12T02:31:10.392Z,14.1
2018-06-12T02:32:00.194Z,14.1
2018-06-12T02:32:50.525Z,14.1
2018-06-12T02:33:40.580Z,14.1
2018-06-12T02:34:30.646Z,14
2018-06-12T02:35:20.727Z,14
2018-06-12T02:36:10.497Z,14
2018-06-12T02:37:00.871Z,14
2018-06-12T02:37:50.890Z,14
2018-06-12T02:38:40.966Z,14
2018-06-12T02:39:31.039Z,14
2018-06-12T02:40:20.830Z,14
2018-06-12T02:41:11.141Z,14
2018-06-12T02:42:00.922Z,14
2018-06-12T02:42:51.302Z,14
2018-06-12T02:43:41.424Z,14
2018-06-12T02:44:31.697Z,14
2018-06-12T02:45:21.509Z,14
2018-06-12T02:46:10.999Z,14
2018-06-12T02:47:01.636Z,13.9
2018-06-12T02:47:51.436Z,13.9
2018-06-12T02:48:41.779Z,13.9
2018-06-12T02:49:31.830Z,13.9
2018-06-12T02:50:21.902Z,13.9
2018-06-12T02:51:11.634Z,13.9
2018-06-12T02:52:02.003Z,13.9
2018-06-12T02:52:52.077Z,13.9
2018-06-12T02:53:42.153Z,13.9
2018-06-12T02:54:31.635Z,13.9
2018-06-12T02:55:21.961Z,13.9
2018-06-12T02:56:12.443Z,13.9
2018-06-12T02:57:02.095Z,13.9
2018-06-12T02:57:52.205Z,13.9
2018-06-12T02:58:42.532Z,13.9
2018-06-12T02:59:32.593Z,13.9
2018-06-12T03:00:22.636Z,13.9
2018-06-12T03:01:12.698Z,13.9
2018-06-12T03:02:02.794Z,13.9
2018-06-12T03:02:52.883Z,13.9
2018-06-12T03:03:42.609Z,13.9
2018-06-12T03:04:32.411Z,13.9
2018-06-12T03:05:23.051Z,13.9
2018-06-12T03:06:12.539Z,13.9
2018-06-12T03:07:02.880Z,13.9
2018-06-12T03:07:53.032Z,13.9
2018-06-12T03:08:43.318Z,13.9
2018-06-12T03:09:33.083Z,13.9
2018-06-12T03:10:23.424Z,13.9
2018-06-12T03:11:13.218Z,14
2018-06-12T03:12:03.297Z,14
2018-06-12T03:12:53.078Z,14
2018-06-12T03:13:43.658Z,14
2018-06-12T03:14:33.473Z,14.1
2018-06-12T03:15:23.831Z,14.1
2018-06-12T03:16:13.853Z,14.1
2018-06-12T03:17:03.905Z,14.1
2018-06-12T03:17:54.002Z,14.1
2018-06-12T03:18:44.057Z,14.1
2018-06-12T03:19:34.129Z,14.1
2018-06-12T03:20:23.891Z,14.2
2018-06-12T03:21:13.979Z,14.2
2018-06-12T03:22:03.765Z,14.2
2018-06-12T03:22:54.111Z,14.2
2018-06-12T03:23:44.188Z,14.3
2018-06-12T03:24:34.539Z,14.3
2018-06-12T03:25:24.434Z,14.3
2018-06-12T03:26:14.618Z,14.3
2018-06-12T03:27:04.699Z,14.3
2018-06-12T03:27:54.475Z,14.3
2018-06-12T03:28:44.596Z,14.3
2018-06-12T03:29:34.886Z,14.4
2018-06-12T03:30:24.657Z,14.4
2018-06-12T03:31:14.774Z,14.4
2018-06-12T03:32:05.096Z,14.4
2018-06-12T03:32:55.146Z,14.4
2018-06-12T03:33:45.200Z,14.5
2018-06-12T03:34:35.253Z,14.6
2018-06-12T03:35:25.322Z,14.6
2018-06-12T03:36:15.397Z,14.6
2018-06-12T03:37:05.448Z,14.6
2018-06-12T03:37:55.567Z,14.6
2018-06-12T03:38:45.591Z,14.6
2018-06-12T03:39:35.655Z,14.7
2018-06-12T03:40:25.452Z,14.8
2018-06-12T03:41:15.532Z,14.8
2018-06-12T03:42:05.870Z,14.8
2018-06-12T03:42:55.628Z,14.8
2018-06-12T03:43:45.995Z,14.9
2018-06-12T03:44:36.059Z,14.9
2018-06-12T03:45:26.093Z,14.9
2018-06-12T03:46:15.916Z,14.9
2018-06-12T03:47:05.686Z,15
2018-06-12T03:47:55.761Z,15.1
2018-06-12T03:48:46.111Z,15.1
2018-06-12T03:49:36.440Z,15.1
2018-06-12T03:50:26.488Z,15.2
2018-06-12T03:51:16.278Z,15.3
2018-06-12T03:52:06.379Z,15.3
2018-06-12T03:52:56.689Z,15.3
2018-06-12T03:53:46.779Z,15.4
2018-06-12T03:54:36.269Z,15.4
2018-06-12T03:55:26.600Z,15.5
2018-06-12T03:56:17.006Z,15.5
2018-06-12T03:57:06.766Z,15.6
2018-06-12T03:57:57.075Z,15.6
2018-06-12T03:58:46.887Z,15.7
2018-06-12T03:59:37.216Z,15.8
2018-06-12T04:00:27.017Z,15.8
2018-06-12T04:01:17.338Z,15.9
2018-06-12T04:02:07.421Z,15.9
2018-06-12T04:02:57.210Z,16
2018-06-12T04:03:47.241Z,16
2018-06-12T04:04:37.588Z,16.1
2018-06-12T04:05:27.379Z,16.2
2018-06-12T04:06:17.704Z,16.3
2018-06-12T04:07:07.801Z,16.3
2018-06-12T04:07:57.864Z,16.4
2018-06-12T04:08:47.903Z,16.4
2018-06-12T04:09:37.983Z,16.6
2018-06-12T04:10:28.037Z,16.6
2018-06-12T04:11:17.827Z,16.7
2018-06-12T04:12:07.890Z,16.8
2018-06-12T04:12:57.395Z,16.9
2018-06-12T04:14:38.389Z,17.1
2018-06-12T04:15:27.885Z,17.2
2018-06-12T04:16:18.499Z,17.3
2018-06-12T04:17:08.564Z,17.4
2018-06-12T04:17:58.326Z,17.5
2018-06-12T04:18:47.830Z,17.6
2018-06-12T04:19:38.760Z,17.7
2018-06-12T04:20:29.075Z,17.8
2018-06-12T04:21:18.914Z,17.9
2018-06-12T04:22:08.952Z,18
2018-06-12T04:22:58.737Z,18.1
2018-06-12T04:23:49.075Z,18.2
2018-06-12T04:24:38.358Z,18.3
2018-06-12T04:25:28.619Z,18.4
2018-06-12T04:26:19.007Z,18.5
2018-06-12T04:27:09.319Z,18.6
2018-06-12T04:28:48.879Z,18.8
2018-06-12T04:29:39.221Z,18.8
2018-06-12T04:30:29.314Z,18.9
2018-06-12T04:31:19.451Z,19
2018-06-12T04:32:09.448Z,19.1
2018-06-12T04:32:59.242Z,19.3
2018-06-12T04:33:49.579Z,19.4
2018-06-12T04:34:39.906Z,19.7
2018-06-12T04:35:29.428Z,19.9
2018-06-12T04:36:20.011Z,20.1
2018-06-12T04:37:10.090Z,20.3
2018-06-12T04:37:59.887Z,20.5
2018-06-12T04:38:50.235Z,20.7
2018-06-12T04:39:40.297Z,20.9
2018-06-12T04:40:29.796Z,21.1
2018-06-12T04:41:20.417Z,21.3
2018-06-12T04:42:10.479Z,21.4
2018-06-12T04:43:00.252Z,21.6
2018-06-12T04:43:50.621Z,21.8
2018-06-12T04:44:40.719Z,22
2018-06-12T04:45:30.177Z,22.2
2018-06-12T04:46:20.801Z,22.4
2018-06-12T04:47:10.882Z,22.6
2018-06-12T04:48:00.640Z,22.8
2018-06-12T04:48:51.026Z,23
2018-06-12T04:49:41.047Z,23.2
2018-06-12T04:50:31.109Z,23.4
2018-06-12T04:51:20.914Z,23.6
2018-06-12T04:52:10.976Z,23.8
2018-06-12T04:53:01.317Z,24
2018-06-12T04:53:51.414Z,24.3
2018-06-12T04:54:41.384Z,24.4
2018-06-12T04:55:30.742Z,24.6
2018-06-12T04:56:20.820Z,24.9
2018-06-12T04:57:11.094Z,25.1
2018-06-12T04:58:01.447Z,25.4
2018-06-12T04:58:51.213Z,25.6
2018-06-12T04:59:41.858Z,25.8
2018-06-12T05:00:31.894Z,26.1
2018-06-12T05:01:21.970Z,26.3
2018-06-12T05:02:12.060Z,26.6
2018-06-12T05:03:02.087Z,26.9
2018-06-12T05:03:51.597Z,27.1
2018-06-12T05:04:41.949Z,27.4
2018-06-12T05:05:32.292Z,27.6
2018-06-12T05:06:22.061Z,27.9
2018-06-12T05:07:12.121Z,28.1
2018-06-12T05:08:02.283Z,28.4
2018-06-12T05:08:51.721Z,28.7
2018-06-12T05:09:42.588Z,29
2018-06-12T05:10:32.688Z,29.3
2018-06-12T05:11:21.891Z,29.5
2018-06-12T05:12:12.540Z,29.8
2018-06-12T05:13:02.313Z,30.1
2018-06-12T05:13:52.664Z,30.3
2018-06-12T05:14:43.004Z,30.6
2018-06-12T05:15:32.478Z,30.9
2018-06-12T05:16:22.547Z,31.1
2018-06-12T05:17:12.659Z,31.4
2018-06-12T05:18:02.678Z,31.8
2018-06-12T05:18:53.044Z,32
2018-06-12T05:19:43.891Z,32.3
2018-06-12T05:20:32.885Z,32.5
2018-06-12T05:21:23.485Z,32.8
2018-06-12T05:22:13.594Z,33.1
2018-06-12T05:23:03.367Z,33.4
2018-06-12T05:23:53.687Z,33.7
2018-06-12T05:24:43.485Z,33.9
2018-06-12T05:25:33.349Z,34.2
2018-06-12T05:26:23.629Z,34.6
2018-06-12T05:27:13.997Z,34.9
2018-06-12T05:28:04.027Z,35.2
2018-06-12T05:28:54.099Z,35.4
2018-06-12T05:29:44.139Z,35.8
2018-06-12T05:30:33.936Z,36
2018-06-12T05:31:24.277Z,36.3
2018-06-12T05:32:13.775Z,36.6
2018-06-12T05:33:04.401Z,36.9
2018-06-12T05:33:54.490Z,37.3
2018-06-12T05:34:44.548Z,37.6
2018-06-12T05:35:34.621Z,37.9
2018-06-12T05:36:24.661Z,38.1
2018-06-12T05:37:14.450Z,38.4
2018-06-12T05:38:03.928Z,38.8
2018-06-12T05:38:54.301Z,39.1
2018-06-12T05:39:44.372Z,39.5
2018-06-12T05:40:34.997Z,39.9
2018-06-12T05:41:25.111Z,40.2
2018-06-12T05:42:14.868Z,40.4
2018-06-12T05:43:04.608Z,40.8
2018-06-12T05:43:55.223Z,41.1
2018-06-12T05:44:45.056Z,41.5
2018-06-12T05:45:35.411Z,41.8
2018-06-12T05:46:25.422Z,42.1
2018-06-12T05:47:15.509Z,42.4
2018-06-12T05:48:05.313Z,42.8
2018-06-12T05:48:55.071Z,43.2
2018-06-12T05:49:45.685Z,43.6
2018-06-12T05:50:35.511Z,43.9
2018-06-12T05:51:25.843Z,44.3
2018-06-12T05:52:15.615Z,44.6
2018-06-12T05:53:05.712Z,45
2018-06-12T05:53:56.009Z,45.3
2018-06-12T05:54:46.066Z,45.6
2018-06-12T05:55:36.132Z,46.1
2018-06-12T05:56:26.218Z,46.4
2018-06-12T05:57:16.270Z,46.8
2018-06-12T05:58:06.352Z,47.1
2018-06-12T05:58:56.147Z,47.5
2018-06-12T05:59:46.482Z,47.9
2018-06-12T06:00:36.520Z,48.3
2018-06-12T06:01:26.343Z,48.6
2018-06-12T06:02:16.659Z,48.9
2018-06-12T06:03:06.737Z,49.3
2018-06-12T06:03:56.529Z,49.7
2018-06-12T06:04:46.584Z,50
2018-06-12T06:05:36.911Z,50.4
2018-06-12T06:06:26.982Z,50.8
2018-06-12T06:07:16.777Z,51.2
2018-06-12T06:08:06.838Z,51.6
2018-06-12T06:08:56.886Z,52
2018-06-12T06:09:46.948Z,52.3
2018-06-12T06:10:37.598Z,52.4
2018-06-12T06:11:27.360Z,52.8
2018-06-12T06:12:17.444Z,53.3
2018-06-12T06:13:07.203Z,53.7
2018-06-12T06:13:57.558Z,54.1
2018-06-12T06:14:47.361Z,54.4
2018-06-12T06:15:37.415Z,54.8
2018-06-12T06:16:27.461Z,55.3
2018-06-12T06:17:17.837Z,55.7
2018-06-12T06:18:07.907Z,56
2018-06-12T06:18:57.972Z,56.3
2018-06-12T06:19:48.020Z,56.7
2018-06-12T06:20:37.824Z,57.1
2018-06-12T06:21:28.188Z,57.4
2018-06-12T06:22:17.953Z,57.8
2018-06-12T06:23:07.724Z,58.1
2018-06-12T06:23:58.067Z,58.5
2018-06-12T06:24:47.923Z,58.9
2018-06-12T06:25:38.174Z,59.2
2018-06-12T06:26:28.266Z,59.6
2018-06-12T06:27:18.624Z,60.1
2018-06-12T06:28:08.392Z,61.4
2018-06-12T06:28:58.151Z,60.6
2018-06-12T06:29:48.519Z,57.6
2018-06-12T06:30:38.566Z,51.7
2018-06-12T06:31:28.902Z,47.2
2018-06-12T06:32:18.714Z,45.1
2018-06-12T06:33:08.758Z,44.2
2018-06-12T06:33:59.093Z,43.9
2018-06-12T06:34:49.184Z,43.8
2018-06-12T06:35:39.235Z,44.1
2018-06-12T06:36:29.302Z,44.8
2018-06-12T06:37:19.097Z,45.6
2018-06-12T06:38:08.881Z,46.6
2018-06-12T06:38:59.222Z,47.7
2018-06-12T06:39:49.291Z,48.7
2018-06-12T06:40:39.385Z,49.8
2018-06-12T06:41:29.686Z,50.8
2018-06-12T06:42:19.480Z,51.8
2018-06-12T06:43:09.411Z,52.6
2018-06-12T06:43:59.912Z,53.5
2018-06-12T06:44:49.939Z,54.4
2018-06-12T06:45:39.759Z,55.1
2018-06-12T06:46:30.092Z,55.9
2018-06-12T06:47:20.161Z,56.7
2018-06-12T06:48:10.220Z,57.6
2018-06-12T06:48:59.711Z,58.4
2018-06-12T06:49:49.864Z,59.2
2018-06-12T06:50:40.129Z,60
2018-06-12T06:51:30.472Z,61.8
2018-06-12T06:52:20.296Z,62
2018-06-12T06:53:10.055Z,59.3
2018-06-12T06:54:00.375Z,56.1
2018-06-12T06:54:50.735Z,52.5
2018-06-12T06:55:40.790Z,50.3
2018-06-12T06:56:30.869Z,49.6
2018-06-12T06:57:20.960Z,49.6
2018-06-12T06:58:10.989Z,50.2
2018-06-12T06:59:01.076Z,51.1
2018-06-12T07:00:41.203Z,53
2018-06-12T07:01:30.974Z,54.3
2018-06-12T07:02:20.464Z,55.4
2018-06-12T07:03:11.380Z,56.5
2018-06-12T07:04:01.179Z,57.6
2018-06-12T07:04:50.941Z,58.8
2018-06-12T07:05:40.785Z,60.1
2018-06-12T07:06:31.634Z,62.4
2018-06-12T07:07:21.400Z,62.1
2018-06-12T07:08:11.750Z,60.9
2018-06-12T07:09:01.400Z,59.3
2018-06-12T07:09:51.894Z,56.6
2018-06-12T07:10:41.688Z,54.3
2018-06-12T07:11:32.024Z,53.6
2018-06-12T07:12:22.071Z,54.4
2018-06-12T07:13:12.132Z,55.7
2018-06-12T07:14:02.216Z,56.6
2018-06-12T07:14:52.525Z,56.8
2018-06-12T07:15:42.413Z,56.4
2018-06-12T07:16:32.419Z,55.8
2018-06-12T07:17:21.975Z,55.5
2018-06-12T07:18:12.041Z,55.6
2018-06-12T07:19:02.324Z,55.9
2018-06-12T07:19:52.383Z,56.3
2018-06-12T07:20:42.768Z,56.7
2018-06-12T07:21:32.810Z,56.8
2018-06-12T07:22:22.586Z,56.9
2018-06-12T07:23:12.904Z,56.9
2018-06-12T07:24:02.986Z,56.9
2018-06-12T07:24:53.057Z,57.1
2018-06-12T07:25:43.116Z,57.3
2018-06-12T07:26:33.185Z,57.4
2018-06-12T07:27:22.712Z,57.5
2018-06-12T07:28:13.027Z,57.7
2018-06-12T07:29:03.108Z,57.8
2018-06-12T07:29:52.881Z,57.9
2018-06-12T07:30:43.510Z,58.1
2018-06-12T07:31:33.567Z,58.3
2018-06-12T07:32:24.001Z,58.4
2018-06-12T07:34:03.767Z,58.7
2018-06-12T07:34:53.840Z,58.8
2018-06-12T07:35:43.935Z,58.9
2018-06-12T07:36:33.979Z,59.1
2018-06-12T07:37:24.028Z,59.3
2018-06-12T07:38:13.059Z,59.4
2018-06-12T07:39:03.918Z,59.6
2018-06-12T07:39:53.662Z,59.7
2018-06-12T07:40:44.304Z,59.8
2018-06-12T07:41:34.355Z,59.9
2018-06-12T07:42:23.854Z,60.1
2018-06-12T07:43:14.506Z,60.1
2018-06-12T07:44:04.551Z,60.2
2018-06-12T07:44:54.639Z,60.3
